createdAt,value
2022-09-11T00:01:14.163Z,100.00
2022-09-11T00:03:42.854Z,100.00
2022-09-11T00:06:29.286Z,100.00
2022-09-11T00:09:02.632Z,100.00
2022-09-11T00:11:36.427Z,100.00
2022-09-11T00:14:03.339Z,100.00
2022-09-11T00:16:32.532Z,100.00
2022-09-11T00:19:00.968Z,100.00
2022-09-11T00:21:28.743Z,100.00
2022-09-11T00:23:56.402Z,100.00
2022-09-11T00:26:24.881Z,100.00
2022-09-11T00:28:52.349Z,100.00
2022-09-11T00:31:22.064Z,100.00
2022-09-11T00:33:48.749Z,100.00
2022-09-11T00:36:17.905Z,100.00
2022-09-11T00:38:45.671Z,100.00
2022-09-11T00:41:17.044Z,100.00
2022-09-11T00:43:53.939Z,100.00
2022-09-11T00:46:21.813Z,100.00
2022-09-11T00:48:49.852Z,100.00
2022-09-11T00:51:26.443Z,100.00
2022-09-11T00:53:55.345Z,100.00
2022-09-11T00:56:25.240Z,100.00
2022-09-11T00:58:54.743Z,100.00
2022-09-11T01:01:21.291Z,100.00
2022-09-11T01:03:48.478Z,100.00
2022-09-11T01:06:15.003Z,100.00
2022-09-11T01:08:41.411Z,100.00
2022-09-11T01:11:26.031Z,100.00
2022-09-11T01:14:20.010Z,100.00
2022-09-11T01:17:12.688Z,100.00
2022-09-11T01:20:09.814Z,100.00
2022-09-11T01:22:51.652Z,100.00
2022-09-11T01:25:58.194Z,100.00
2022-09-11T01:28:35.306Z,100.00
2022-09-11T01:31:10.416Z,100.00
2022-09-11T01:33:47.791Z,100.00
2022-09-11T01:36:19.488Z,100.00
2022-09-11T01:38:56.828Z,100.00
2022-09-11T01:41:29.361Z,100.00
2022-09-11T01:44:11.173Z,100.00
2022-09-11T01:46:44.269Z,100.00
2022-09-11T01:49:14.669Z,100.00
2022-09-11T01:51:41.543Z,100.00
2022-09-11T01:54:14.569Z,100.00
2022-09-11T01:57:00.534Z,100.00
2022-09-11T01:59:35.425Z,100.00
2022-09-11T02:02:07.346Z,100.00
2022-09-11T02:04:39.788Z,100.00
2022-09-11T02:07:37.367Z,100.00
2022-09-11T02:10:14.184Z,100.00
2022-09-11T02:12:49.928Z,100.00
2022-09-11T02:15:17.225Z,100.00
2022-09-11T02:18:09.523Z,100.00
2022-09-11T02:20:36.145Z,100.00
2022-09-11T02:23:02.945Z,100.00
2022-09-11T02:25:29.344Z,100.00
2022-09-11T02:27:55.786Z,100.00
2022-09-11T02:30:22.181Z,100.00
2022-09-11T02:32:48.625Z,100.00
2022-09-11T02:35:16.341Z,100.00
2022-09-11T02:38:09.714Z,100.00
2022-09-11T02:40:41.655Z,100.00
2022-09-11T02:43:24.833Z,100.00
2022-09-11T02:46:19.528Z,100.00
2022-09-11T02:48:45.872Z,100.00
2022-09-11T02:51:41.486Z,100.00
2022-09-11T02:54:20.325Z,100.00
2022-09-11T02:56:52.506Z,100.00
2022-09-11T02:59:26.105Z,100.00
2022-09-11T03:01:55.181Z,100.00
2022-09-11T03:04:24.558Z,100.00
2022-09-11T03:06:52.764Z,100.00
2022-09-11T03:09:19.878Z,100.00
2022-09-11T03:11:46.393Z,100.00
2022-09-11T03:14:14.197Z,100.00
2022-09-11T03:16:41.543Z,100.00
2022-09-11T03:19:08.213Z,100.00
2022-09-11T03:21:35.151Z,100.00
2022-09-11T03:24:01.966Z,100.00
2022-09-11T03:26:29.064Z,100.00
2022-09-11T03:28:55.585Z,100.00
2022-09-11T03:31:22.001Z,100.00
2022-09-11T03:33:48.443Z,100.00
2022-09-11T03:36:15.697Z,100.00
2022-09-11T03:38:42.070Z,100.00
2022-09-11T03:41:09.548Z,100.00
2022-09-11T03:43:36.133Z,100.00
2022-09-11T03:46:03.155Z,100.00
2022-09-11T03:48:29.996Z,100.00
2022-09-11T03:50:56.567Z,100.00
2022-09-11T03:53:23.040Z,100.00
2022-09-11T03:55:52.008Z,100.00
2022-09-11T03:58:21.263Z,100.00
2022-09-11T04:00:48.036Z,100.00
2022-09-11T04:03:15.571Z,100.00
2022-09-11T04:05:46.570Z,100.00
2022-09-11T04:08:13.287Z,100.00
2022-09-11T04:10:39.697Z,100.00
2022-09-11T04:13:06.122Z,100.00
2022-09-11T04:15:32.905Z,100.00
2022-09-11T04:18:04.759Z,100.00
2022-09-11T04:20:32.059Z,100.00
2022-09-11T04:22:58.896Z,100.00
2022-09-11T04:25:25.521Z,100.00
2022-09-11T04:27:51.921Z,100.00
2022-09-11T04:30:19.756Z,100.00
2022-09-11T04:32:46.206Z,100.00
2022-09-11T04:35:12.686Z,100.00
2022-09-11T04:37:39.104Z,100.00
2022-09-11T04:40:06.117Z,100.00
2022-09-11T04:42:32.613Z,100.00
2022-09-11T04:44:59.010Z,100.00
2022-09-11T04:47:25.391Z,100.00
2022-09-11T04:49:52.741Z,100.00
2022-09-11T04:52:19.461Z,100.00
2022-09-11T04:54:46.422Z,100.00
2022-09-11T04:57:13.952Z,100.00
2022-09-11T04:59:40.352Z,100.00
2022-09-11T05:02:07.052Z,100.00
2022-09-11T05:04:33.535Z,100.00
2022-09-11T05:07:00.266Z,100.00
2022-09-11T05:09:27.701Z,100.00
2022-09-11T05:11:54.421Z,100.00
2022-09-11T05:14:20.808Z,100.00
2022-09-11T05:16:47.259Z,100.00
2022-09-11T05:19:13.708Z,100.00
2022-09-11T05:21:40.120Z,100.00
2022-09-11T05:24:06.583Z,100.00
2022-09-11T05:26:35.647Z,100.00
2022-09-11T05:29:05.342Z,100.00
2022-09-11T05:31:34.669Z,100.00
2022-09-11T05:34:01.832Z,100.00
2022-09-11T05:36:30.919Z,100.00
2022-09-11T05:38:58.424Z,100.00
2022-09-11T05:41:25.009Z,100.00
2022-09-11T05:43:51.672Z,100.00
2022-09-11T05:46:19.804Z,100.00
2022-09-11T05:48:46.386Z,100.00
2022-09-11T05:51:15.092Z,100.00
2022-09-11T05:53:42.132Z,100.00
2022-09-11T05:56:19.802Z,100.00
2022-09-11T05:58:48.145Z,100.00
2022-09-11T06:01:17.944Z,100.00
2022-09-11T06:03:44.617Z,100.00
2022-09-11T06:06:12.652Z,100.00
2022-09-11T06:08:42.235Z,100.00
2022-09-11T06:11:09.085Z,100.00
2022-09-11T06:13:40.468Z,100.00
2022-09-11T06:16:21.917Z,100.00
2022-09-11T06:18:50.012Z,100.00
2022-09-11T06:21:23.116Z,100.00
2022-09-11T06:23:51.881Z,100.00
2022-09-11T06:26:23.708Z,100.00
2022-09-11T06:28:53.550Z,100.00
2022-09-11T06:31:22.329Z,100.00
2022-09-11T06:33:50.988Z,100.00
2022-09-11T06:36:20.028Z,100.00
2022-09-11T06:38:47.316Z,100.00
2022-09-11T06:41:16.112Z,100.00
2022-09-11T06:43:43.807Z,100.00
2022-09-11T06:46:16.400Z,100.00
2022-09-11T06:48:46.113Z,100.00
2022-09-11T06:51:17.481Z,100.00
2022-09-11T06:53:45.181Z,100.00
2022-09-11T06:56:14.352Z,100.00
2022-09-11T06:58:41.217Z,100.00
2022-09-11T07:01:15.572Z,100.00
2022-09-11T07:03:46.444Z,100.00
2022-09-11T07:06:14.464Z,100.00
2022-09-11T07:08:40.880Z,100.00
2022-09-11T07:11:12.714Z,100.00
2022-09-11T07:13:39.965Z,100.00
2022-09-11T07:16:09.196Z,100.00
2022-09-11T07:18:40.271Z,100.00
2022-09-11T07:21:19.283Z,100.00
2022-09-11T07:23:51.757Z,100.00
2022-09-11T07:26:18.666Z,100.00
2022-09-11T07:28:45.293Z,100.00
2022-09-11T07:31:18.577Z,100.00
2022-09-11T07:33:48.719Z,100.00
2022-09-11T07:36:17.795Z,100.00
2022-09-11T07:38:46.935Z,100.00
2022-09-11T07:41:15.399Z,100.00
2022-09-11T07:43:45.423Z,100.00
2022-09-11T07:46:12.781Z,100.00
2022-09-11T07:48:39.654Z,100.00
2022-09-11T07:51:08.087Z,100.00
2022-09-11T07:53:39.923Z,100.00
2022-09-11T07:56:26.182Z,100.00
2022-09-11T07:58:57.394Z,100.00
2022-09-11T08:01:26.541Z,100.00
2022-09-11T08:03:58.221Z,100.00
2022-09-11T08:06:27.181Z,100.00
2022-09-11T08:08:55.195Z,100.00
2022-09-11T08:11:24.623Z,100.00
2022-09-11T08:13:52.585Z,100.00
2022-09-11T08:16:21.083Z,100.00
2022-09-11T08:18:48.700Z,100.00
2022-09-11T08:21:16.299Z,100.00
2022-09-11T08:23:44.375Z,100.00
2022-09-11T08:26:13.590Z,100.00
2022-09-11T08:28:48.560Z,100.00
2022-09-11T08:31:16.597Z,100.00
2022-09-11T08:33:43.758Z,100.00
2022-09-11T08:36:13.178Z,100.00
2022-09-11T08:41:32.485Z,100.00
2022-09-11T08:44:12.036Z,100.00
2022-09-11T08:46:45.898Z,100.00
2022-09-11T08:49:21.307Z,100.00
2022-09-11T08:51:49.951Z,100.00
2022-09-11T08:54:27.380Z,99.83
2022-09-11T08:56:58.582Z,98.68
2022-09-11T09:00:01.182Z,97.59
2022-09-11T09:02:39.204Z,97.97
2022-09-11T09:05:42.097Z,96.86
2022-09-11T09:08:29.706Z,97.42
2022-09-11T09:11:19.922Z,96.07
2022-09-11T09:13:57.414Z,93.61
2022-09-11T09:16:39.327Z,94.45
2022-09-11T09:19:14.185Z,94.46
2022-09-11T09:21:45.217Z,93.37
2022-09-11T09:24:19.636Z,92.70
2022-09-11T09:26:52.620Z,93.17
2022-09-11T09:29:22.752Z,92.63
2022-09-11T09:32:02.128Z,92.03
2022-09-11T09:34:34.994Z,92.25
2022-09-11T09:37:17.050Z,91.04
2022-09-11T09:39:46.762Z,90.60
2022-09-11T09:42:32.184Z,89.51
2022-09-11T09:45:10.395Z,90.55
2022-09-11T09:47:43.847Z,90.61
2022-09-11T09:50:44.679Z,89.75
2022-09-11T09:53:35.240Z,90.48
2022-09-11T09:56:04.465Z,89.92
2022-09-11T09:58:36.963Z,90.56
2022-09-11T10:01:18.510Z,90.16
2022-09-11T10:03:44.949Z,90.01
2022-09-11T10:06:11.361Z,86.73
2022-09-11T10:08:38.316Z,88.24
2022-09-11T10:11:07.402Z,87.06
2022-09-11T10:13:37.641Z,86.17
2022-09-11T10:16:05.821Z,86.55
2022-09-11T10:18:35.773Z,87.49
2022-09-11T10:21:24.044Z,85.77
2022-09-11T10:24:02.527Z,86.77
2022-09-11T10:26:31.595Z,88.41
2022-09-11T10:29:13.098Z,88.53
2022-09-11T10:31:41.926Z,86.77
2022-09-11T10:34:16.246Z,84.37
2022-09-11T10:36:56.522Z,84.77
2022-09-11T10:39:26.102Z,85.78
2022-09-11T10:41:57.075Z,84.97
2022-09-11T10:44:24.174Z,83.62
2022-09-11T10:47:17.364Z,83.04
2022-09-11T10:49:45.548Z,83.34
2022-09-11T10:52:11.877Z,84.37
2022-09-11T10:55:05.821Z,83.71
2022-09-11T10:57:38.060Z,81.28
2022-09-11T11:00:08.387Z,85.97
2022-09-11T11:02:39.884Z,81.97
2022-09-11T11:05:19.675Z,84.30
2022-09-11T11:07:59.170Z,83.53
2022-09-11T11:10:50.903Z,84.90
2022-09-11T11:13:34.010Z,83.55
2022-09-11T11:16:25.123Z,81.99
2022-09-11T11:19:34.780Z,80.27
2022-09-11T11:22:03.945Z,81.76
2022-09-11T11:24:42.383Z,80.42
2022-09-11T11:27:46.306Z,81.42
2022-09-11T11:30:19.096Z,79.88
2022-09-11T11:32:48.690Z,80.81
2022-09-11T11:36:00.889Z,79.87
2022-09-11T11:38:33.162Z,79.81
2022-09-11T11:41:19.804Z,79.53
2022-09-11T11:43:48.809Z,80.04
2022-09-11T11:46:24.247Z,79.25
2022-09-11T11:48:55.971Z,77.52
2022-09-11T11:51:38.015Z,76.17
2022-09-11T11:54:14.538Z,77.31
2022-09-11T11:56:51.779Z,77.85
2022-09-11T11:59:31.935Z,75.09
2022-09-11T12:02:04.055Z,75.76
2022-09-11T12:04:49.655Z,72.53
2022-09-11T12:07:21.785Z,73.56
2022-09-11T12:09:49.895Z,74.58
2022-09-11T12:12:19.250Z,76.76
2022-09-11T12:14:55.220Z,76.85
2022-09-11T12:17:28.957Z,76.70
2022-09-11T12:20:13.442Z,76.47
2022-09-11T12:22:50.492Z,75.96
2022-09-11T12:25:19.834Z,75.48
2022-09-11T12:27:46.161Z,75.04
2022-09-11T12:30:18.544Z,70.86
2022-09-11T12:32:51.013Z,73.42
2022-09-11T12:35:29.627Z,73.48
2022-09-11T12:38:14.393Z,74.72
2022-09-11T12:41:14.040Z,74.07
2022-09-11T12:43:41.289Z,75.13
2022-09-11T12:46:34.684Z,71.55
2022-09-11T12:49:25.756Z,74.50
2022-09-11T12:51:59.476Z,73.25
2022-09-11T12:54:38.369Z,72.99
2022-09-11T12:57:19.406Z,74.71
2022-09-11T12:59:53.219Z,73.44
2022-09-11T13:02:36.809Z,71.80
2022-09-11T13:05:06.659Z,73.22
2022-09-11T13:07:43.061Z,71.55
2022-09-11T13:10:25.038Z,70.46
2022-09-11T13:12:53.929Z,70.72
2022-09-11T13:15:38.804Z,69.95
2022-09-11T13:18:25.078Z,70.72
2022-09-11T13:21:26.351Z,69.62
2022-09-11T13:23:53.491Z,70.02
2022-09-11T13:26:31.488Z,70.23
2022-09-11T13:28:59.809Z,71.46
2022-09-11T13:31:38.143Z,72.27
2022-09-11T13:34:13.058Z,70.28
2022-09-11T13:36:40.582Z,70.48
2022-09-11T13:39:08.477Z,69.94
2022-09-11T13:41:43.675Z,69.40
2022-09-11T13:44:29.966Z,68.46
2022-09-11T13:47:00.497Z,68.33
2022-09-11T13:49:36.331Z,69.58
2022-09-11T13:52:06.740Z,68.94
2022-09-11T13:54:34.743Z,69.49
2022-09-11T13:57:01.476Z,69.72
2022-09-11T13:59:44.478Z,69.86
2022-09-11T14:02:34.541Z,64.85
2022-09-11T14:05:20.727Z,64.94
2022-09-11T14:08:07.157Z,66.62
2022-09-11T14:10:42.879Z,65.02
2022-09-11T14:13:53.430Z,65.61
2022-09-11T14:16:21.883Z,63.80
2022-09-11T14:18:53.121Z,65.78
2022-09-11T14:21:25.870Z,65.51
2022-09-11T14:23:54.700Z,65.92
2022-09-11T14:26:39.044Z,65.20
2022-09-11T14:29:24.045Z,65.45
2022-09-11T14:31:52.124Z,66.21
2022-09-11T14:34:26.842Z,65.70
2022-09-11T14:36:59.240Z,65.29
2022-09-11T14:39:40.889Z,65.67
2022-09-11T14:42:16.113Z,65.63
2022-09-11T14:44:42.960Z,65.87
2022-09-11T14:47:17.293Z,64.74
2022-09-11T14:49:45.179Z,64.11
2022-09-11T14:52:20.918Z,63.77
2022-09-11T14:54:47.558Z,64.55
2022-09-11T14:57:20.623Z,61.97
2022-09-11T14:59:47.579Z,61.23
2022-09-11T15:02:19.722Z,61.34
2022-09-11T15:04:46.961Z,60.41
2022-09-11T15:07:15.526Z,57.85
2022-09-11T15:09:42.583Z,57.08
2022-09-11T15:12:10.900Z,56.24
2022-09-11T15:14:55.528Z,56.00
2022-09-11T15:17:25.082Z,56.36
2022-09-11T15:19:52.562Z,55.84
2022-09-11T15:22:19.074Z,55.63
2022-09-11T15:24:45.503Z,54.43
2022-09-11T15:27:11.924Z,53.53
2022-09-11T15:29:39.750Z,52.82
2022-09-11T15:32:07.535Z,52.38
2022-09-11T15:34:34.447Z,52.33
2022-09-11T15:37:00.853Z,51.60
2022-09-11T15:39:28.032Z,51.89
2022-09-11T15:41:56.005Z,52.39
2022-09-11T15:44:25.480Z,52.54
2022-09-11T15:46:54.309Z,51.70
2022-09-11T15:49:23.284Z,51.03
2022-09-11T15:51:51.382Z,51.45
2022-09-11T15:54:18.026Z,51.47
2022-09-11T15:56:44.693Z,51.12
2022-09-11T15:59:12.292Z,50.52
2022-09-11T16:01:40.804Z,51.33
2022-09-11T16:04:10.545Z,51.38
2022-09-11T16:06:40.258Z,52.26
2022-09-11T16:09:11.205Z,53.90
2022-09-11T16:11:39.899Z,53.47
2022-09-11T16:14:07.890Z,50.97
2022-09-11T16:16:34.940Z,50.83
2022-09-11T16:19:01.716Z,51.69
2022-09-11T16:21:28.647Z,53.45
2022-09-11T16:24:00.653Z,53.41
2022-09-11T16:26:29.022Z,53.71
2022-09-11T16:28:55.467Z,54.04
2022-09-11T16:31:21.972Z,53.37
2022-09-11T16:33:48.648Z,54.63
2022-09-11T16:36:20.826Z,54.63
2022-09-11T16:38:50.196Z,54.31
2022-09-11T16:41:19.766Z,55.31
2022-09-11T16:43:54.979Z,55.88
2022-09-11T16:46:24.106Z,53.54
2022-09-11T16:48:54.413Z,54.96
2022-09-11T16:51:21.630Z,57.40
2022-09-11T16:53:48.028Z,58.82
2022-09-11T16:56:17.289Z,60.29
2022-09-11T16:58:44.243Z,60.86
2022-09-11T17:01:16.709Z,60.86
2022-09-11T17:03:45.174Z,61.37
2022-09-11T17:06:14.542Z,61.30
2022-09-11T17:08:43.346Z,62.48
2022-09-11T17:11:13.766Z,62.43
2022-09-11T17:13:41.224Z,63.17
2022-09-11T17:16:15.412Z,62.73
2022-09-11T17:18:47.316Z,63.25
2022-09-11T17:21:13.805Z,63.48
2022-09-11T17:23:40.246Z,63.42
2022-09-11T17:26:12.512Z,63.47
2022-09-11T17:28:40.078Z,63.69
2022-09-11T17:31:08.949Z,64.19
2022-09-11T17:33:37.677Z,64.60
2022-09-11T17:36:05.245Z,65.27
2022-09-11T17:38:31.880Z,65.44
2022-09-11T17:40:59.796Z,65.44
2022-09-11T17:43:26.481Z,66.19
2022-09-11T17:45:59.666Z,66.74
2022-09-11T17:48:26.097Z,67.07
2022-09-11T17:51:00.159Z,67.29
2022-09-11T17:53:26.894Z,68.16
2022-09-11T17:55:59.817Z,68.83
2022-09-11T17:58:26.293Z,69.61
2022-09-11T18:00:53.014Z,70.37
2022-09-11T18:03:22.740Z,71.90
2022-09-11T18:05:49.127Z,72.45
2022-09-11T18:08:15.566Z,72.11
2022-09-11T18:10:51.188Z,72.15
2022-09-11T18:13:17.724Z,73.57
2022-09-11T18:15:44.100Z,73.77
2022-09-11T18:18:10.490Z,74.34
2022-09-11T18:20:36.947Z,75.19
2022-09-11T18:23:03.373Z,75.13
2022-09-11T18:25:30.125Z,75.17
2022-09-11T18:27:56.553Z,75.93
2022-09-11T18:30:22.996Z,77.75
2022-09-11T18:32:49.965Z,79.15
2022-09-11T18:35:17.316Z,79.61
2022-09-11T18:37:43.710Z,80.70
2022-09-11T18:40:10.146Z,84.39
2022-09-11T18:42:36.580Z,85.02
2022-09-11T18:45:03.137Z,85.03
2022-09-11T18:47:30.569Z,85.25
2022-09-11T18:49:59.593Z,85.69
2022-09-11T18:52:26.460Z,86.25
2022-09-11T18:54:52.864Z,86.90
2022-09-11T18:57:19.293Z,87.80
2022-09-11T18:59:45.676Z,88.15
2022-09-11T19:02:12.377Z,88.77
2022-09-11T19:04:39.127Z,89.06
2022-09-11T19:07:05.747Z,90.81
2022-09-11T19:09:32.116Z,90.50
2022-09-11T19:12:00.325Z,90.25
2022-09-11T19:14:27.157Z,90.85
2022-09-11T19:16:53.801Z,90.82
2022-09-11T19:19:20.346Z,90.66
2022-09-11T19:21:46.724Z,90.81
2022-09-11T19:24:13.155Z,91.70
2022-09-11T19:26:43.403Z,92.24
2022-09-11T19:29:13.288Z,92.48
2022-09-11T19:31:40.381Z,92.57
2022-09-11T19:34:08.338Z,91.79
2022-09-11T19:36:35.954Z,91.64
2022-09-11T19:39:03.684Z,91.09
2022-09-11T19:41:35.057Z,91.00
2022-09-11T19:44:03.157Z,90.58
2022-09-11T19:46:31.448Z,91.20
2022-09-11T19:49:00.665Z,91.19
2022-09-11T19:51:30.270Z,90.84
2022-09-11T19:54:00.201Z,90.78
2022-09-11T19:56:27.576Z,91.24
2022-09-11T19:58:54.688Z,91.85
2022-09-11T20:01:23.678Z,92.05
2022-09-11T20:03:53.277Z,92.27
2022-09-11T20:06:22.052Z,92.43
2022-09-11T20:08:49.842Z,93.05
2022-09-11T20:11:20.979Z,92.36
2022-09-11T20:13:47.533Z,93.04
2022-09-11T20:16:16.880Z,93.12
2022-09-11T20:18:44.422Z,92.15
2022-09-11T20:21:13.616Z,91.49
2022-09-11T20:23:40.256Z,91.48
2022-09-11T20:26:17.388Z,91.19
2022-09-11T20:28:45.580Z,91.29
2022-09-11T20:31:17.557Z,91.46
2022-09-11T20:33:45.218Z,91.03
2022-09-11T20:36:12.754Z,91.21
2022-09-11T20:38:39.221Z,91.33
2022-09-11T20:41:07.471Z,92.15
2022-09-11T20:43:33.966Z,92.71
2022-09-11T20:46:00.961Z,92.67
2022-09-11T20:48:27.679Z,92.46
2022-09-11T20:50:54.327Z,92.06
2022-09-11T20:53:22.861Z,92.07
2022-09-11T20:55:50.155Z,92.19
2022-09-11T20:58:16.601Z,92.27
2022-09-11T21:00:44.372Z,92.49
2022-09-11T21:03:10.808Z,92.80
2022-09-11T21:05:37.450Z,92.88
2022-09-11T21:08:04.436Z,92.99
2022-09-11T21:10:34.546Z,93.34
2022-09-11T21:13:00.941Z,95.96
2022-09-11T21:15:27.378Z,97.81
2022-09-11T21:17:53.764Z,99.68
2022-09-11T21:20:20.136Z,100.00
2022-09-11T21:22:46.568Z,100.00
2022-09-11T21:25:12.997Z,100.00
2022-09-11T21:27:39.393Z,100.00
2022-09-11T21:30:06.409Z,100.00
2022-09-11T21:32:33.383Z,100.00
2022-09-11T21:34:59.748Z,100.00
2022-09-11T21:37:26.232Z,100.00
2022-09-11T21:39:52.704Z,100.00
2022-09-11T21:42:19.127Z,100.00
2022-09-11T21:44:45.513Z,100.00
2022-09-11T21:47:11.909Z,100.00
2022-09-11T21:49:38.318Z,100.00
2022-09-11T21:52:04.744Z,100.00
2022-09-11T21:54:32.046Z,100.00
2022-09-11T21:56:58.563Z,100.00
2022-09-11T21:59:24.951Z,100.00
2022-09-11T22:01:51.481Z,100.00
2022-09-11T22:04:17.887Z,100.00
2022-09-11T22:06:44.308Z,100.00
2022-09-11T22:09:10.687Z,100.00
2022-09-11T22:11:37.382Z,100.00
2022-09-11T22:14:04.489Z,100.00
2022-09-11T22:16:30.997Z,100.00
2022-09-11T22:18:57.400Z,100.00
2022-09-11T22:21:24.123Z,100.00
2022-09-11T22:23:50.760Z,100.00
2022-09-11T22:26:20.133Z,100.00
2022-09-11T22:28:46.638Z,100.00
2022-09-11T22:31:24.557Z,100.00
2022-09-11T22:33:51.856Z,100.00
2022-09-11T22:36:20.905Z,100.00
2022-09-11T22:38:48.493Z,100.00
2022-09-11T22:41:15.232Z,100.00
2022-09-11T22:43:41.891Z,100.00
2022-09-11T22:46:08.536Z,100.00
2022-09-11T22:48:35.075Z,100.00
2022-09-11T22:51:01.964Z,100.00
2022-09-11T22:53:29.643Z,100.00
2022-09-11T22:55:56.397Z,100.00
2022-09-11T22:58:23.813Z,100.00
2022-09-11T23:00:51.721Z,100.00
2022-09-11T23:03:18.159Z,100.00
2022-09-11T23:06:03.536Z,100.00
2022-09-11T23:08:34.719Z,100.00
2022-09-11T23:11:05.177Z,100.00
2022-09-11T23:13:32.438Z,100.00
2022-09-11T23:15:59.236Z,100.00
2022-09-11T23:18:27.311Z,100.00
2022-09-11T23:20:55.655Z,100.00
2022-09-11T23:23:23.145Z,100.00
2022-09-11T23:25:49.609Z,100.00
2022-09-11T23:28:16.345Z,100.00
2022-09-11T23:30:42.753Z,100.00
2022-09-11T23:33:09.384Z,100.00
2022-09-11T23:35:39.907Z,100.00
2022-09-11T23:38:07.950Z,100.00
2022-09-11T23:40:34.700Z,100.00
2022-09-11T23:43:02.005Z,100.00
2022-09-11T23:45:29.243Z,100.00
2022-09-11T23:47:55.671Z,100.00
2022-09-11T23:50:22.107Z,100.00
2022-09-11T23:52:48.940Z,100.00
2022-09-11T23:55:17.332Z,100.00
2022-09-11T23:57:43.734Z,100.00
